Time;durP1;ratioP1;P1;durP2;ratioP2;P2;SDS_P1;SDS_P2;PMS_P1;PMS_P2;Temp;Humidity;BMP_temperature;BMP_pressure;BME280_temperature;BME280_humidity;BME280_pressure;Samples;Min_cycle;Max_cycle;Signal;HPM_P1;HPM_P2
2023/02/07 00:00:22;;;;;;;9.85;8.25;;;;;;;-0.80;100.00;97492.25;5093541;28;24437;-73
2023/02/07 00:02:49;;;;;;;9.80;8.80;;;;;;;-0.81;100.00;97493.94;5097367;28;26140;-73
2023/02/07 00:05:15;;;;;;;9.23;7.90;;;;;;;-0.79;100.00;97486.31;5098581;28;24445;-72
2023/02/07 00:07:43;;;;;;;13.68;9.55;;;;;;;-0.77;100.00;97484.66;5087854;28;25235;-73
2023/02/07 00:10:10;;;;;;;12.38;9.38;;;;;;;-0.86;100.00;97482.00;5100578;28;24434;-73
2023/02/07 00:12:37;;;;;;;12.02;10.70;;;;;;;-0.91;100.00;97481.13;5095406;28;24465;-73
2023/02/07 00:15:03;;;;;;;10.32;9.32;;;;;;;-0.84;100.00;97482.88;5096648;28;24491;-73
2023/02/07 00:17:30;;;;;;;11.18;9.60;;;;;;;-1.02;100.00;97489.50;5090471;28;24435;-73
2023/02/07 00:19:56;;;;;;;10.00;8.95;;;;;;;-1.13;100.00;97501.25;5091845;28;24449;-72
2023/02/07 00:22:23;;;;;;;10.43;9.32;;;;;;;-0.84;100.00;97493.06;5089464;28;24476;-73
2023/02/07 00:24:51;;;;;;;10.17;9.07;;;;;;;-0.80;100.00;97495.63;5095399;28;24474;-73
2023/02/07 00:27:17;;;;;;;10.95;9.85;;;;;;;-0.92;100.00;97505.72;5098024;28;24445;-72
2023/02/07 00:29:44;;;;;;;9.85;8.52;;;;;;;-1.06;100.00;97507.25;5093588;28;24442;-72
2023/02/07 00:32:10;;;;;;;10.73;8.10;;;;;;;-1.16;100.00;97507.97;5098941;28;24517;-72
2023/02/07 00:34:37;;;;;;;10.38;9.18;;;;;;;-1.20;100.00;97496.94;5105499;28;24969;-72
2023/02/07 00:37:04;;;;;;;10.18;8.40;;;;;;;-1.31;100.00;97501.88;5089709;28;24430;-73
2023/02/07 00:39:31;;;;;;;11.88;8.70;;;;;;;-1.35;100.00;97499.28;5090749;28;24438;-72
2023/02/07 00:41:59;;;;;;;10.02;9.02;;;;;;;-1.55;100.00;97477.06;5092856;28;24438;-73
2023/02/07 00:44:25;;;;;;;12.35;8.73;;;;;;;-1.66;100.00;97477.75;5099988;28;24512;-73
2023/02/07 00:46:52;;;;;;;10.93;9.38;;;;;;;-1.91;100.00;97482.50;5095693;28;24983;-73
2023/02/07 00:49:18;;;;;;;15.02;10.18;;;;;;;-2.02;100.00;97472.19;5096974;28;24437;-72
2023/02/07 00:51:45;;;;;;;11.15;10.00;;;;;;;-2.13;100.00;97485.59;5094478;28;24489;-72
2023/02/07 00:54:11;;;;;;;12.38;9.23;;;;;;;-2.32;100.00;97480.25;5099711;28;24472;-72
2023/02/07 00:56:38;;;;;;;11.45;8.70;;;;;;;-2.40;100.00;97473.34;5088549;28;24797;-72
2023/02/07 00:59:06;;;;;;;8.88;8.00;;;;;;;-2.57;100.00;97465.47;5097593;28;25028;-72
2023/02/07 01:01:32;;;;;;;11.02;8.30;;;;;;;-2.68;100.00;97491.50;5096394;28;24430;-70
2023/02/07 01:03:59;;;;;;;13.32;8.73;;;;;;;-2.71;100.00;97496.56;5089451;28;24484;-72
2023/02/07 01:06:26;;;;;;;9.85;8.75;;;;;;;-2.79;100.00;97498.06;5094600;28;25073;-72
2023/02/07 01:08:56;;;;;;;10.73;9.57;;;;;;;-2.76;100.00;97500.66;5097551;28;24437;-72
2023/02/07 01:11:23;;;;;;;10.80;9.60;;;;;;;-2.79;100.00;97497.22;5103800;28;24994;-72
2023/02/07 01:13:49;;;;;;;10.52;9.30;;;;;;;-2.81;100.00;97498.91;5085153;28;24462;-72
2023/02/07 01:16:23;;;;;;;11.05;9.38;;;;;;;-2.85;100.00;97502.22;5097701;28;24852;-72
2023/02/07 01:18:49;;;;;;;10.98;9.75;;;;;;;-2.87;100.00;97489.50;5089853;28;24451;-73
2023/02/07 01:21:18;;;;;;;14.75;9.07;;;;;;;-2.89;100.00;97486.09;5097369;28;24438;-73
2023/02/07 01:23:45;;;;;;;11.20;8.80;;;;;;;-2.91;100.00;97475.06;5099381;28;24987;-72
2023/02/07 01:26:11;;;;;;;10.02;9.02;;;;;;;-2.85;100.00;97470.09;5089052;28;24438;-72
2023/02/07 01:28:38;;;;;;;9.93;8.35;;;;;;;-2.97;100.00;97470.72;5088018;28;24980;-72
2023/02/07 01:31:07;;;;;;;12.23;8.90;;;;;;;-3.04;100.00;97474.00;5104408;28;24426;-72
2023/02/07 01:33:36;;;;;;;20.35;9.57;;;;;;;-3.03;100.00;97485.00;5090242;28;24508;-72
2023/02/07 01:36:06;;;;;;;9.73;8.73;;;;;;;-2.98;100.00;97489.28;5102130;28;24514;-72
2023/02/07 01:38:34;;;;;;;11.80;8.80;;;;;;;-3.00;100.00;97485.06;5092326;28;24453;-73
2023/02/07 01:41:00;;;;;;;11.98;8.85;;;;;;;-3.01;100.00;97488.38;5090819;28;24434;-73
2023/02/07 01:43:27;;;;;;;10.60;8.43;;;;;;;-2.97;100.00;97483.41;5090768;28;24442;-72
2023/02/07 01:45:53;;;;;;;12.05;9.85;;;;;;;-2.85;100.00;97490.38;5092133;28;24437;-72
2023/02/07 01:48:22;;;;;;;11.57;9.05;;;;;;;-2.76;100.00;97499.81;5093094;28;24431;-73
2023/02/07 01:50:53;;;;;;;10.30;8.57;;;;;;;-2.78;100.00;97498.94;5094648;28;24841;-73
2023/02/07 01:53:22;;;;;;;12.60;8.90;;;;;;;-3.02;100.00;97506.97;5099208;28;25257;-72
2023/02/07 01:55:53;;;;;;;13.40;7.90;;;;;;;-3.02;100.00;97509.50;5102649;28;24436;-72
2023/02/07 01:58:21;;;;;;;9.45;7.57;;;;;;;-2.83;100.00;97505.59;5096037;28;24434;-72
2023/02/07 02:00:48;;;;;;;10.20;8.32;;;;;;;-2.81;100.00;97494.69;5092825;28;24994;-72
2023/02/07 02:03:14;;;;;;;10.52;8.02;;;;;;;-2.71;100.00;97501.63;5092096;28;24983;-71
2023/02/07 02:05:42;;;;;;;11.00;7.53;;;;;;;-2.77;100.00;97504.03;5100300;28;24805;-72
2023/02/07 02:08:10;;;;;;;10.38;8.73;;;;;;;-2.40;100.00;97513.94;5089145;28;24444;-72
2023/02/07 02:11:00;;;;;;;10.85;8.88;;;;;;;-2.34;100.00;97512.34;5101144;28;24438;-72
2023/02/07 02:13:33;;;;;;;14.38;8.93;;;;;;;-2.46;100.00;97514.69;5092665;28;24453;-71
2023/02/07 02:16:09;;;;;;;13.65;9.43;;;;;;;-2.69;100.00;97504.16;5094967;28;24436;-72
2023/02/07 02:18:47;;;;;;;14.25;10.23;;;;;;;-2.59;100.00;97498.44;5092026;28;24462;-72
2023/02/07 02:21:49;;;;;;;15.52;10.40;;;;;;;-2.72;100.00;97510.03;5098898;28;24430;-73
2023/02/07 02:24:52;;;;;;;12.00;10.20;;;;;;;-2.77;100.00;97496.44;5091912;28;24468;-72
2023/02/07 02:27:37;;;;;;;15.32;11.50;;;;;;;-2.86;100.00;97516.53;5076300;28;24438;-72
2023/02/07 02:30:28;;;;;;;16.77;12.27;;;;;;;-3.12;100.00;97511.00;5100999;28;24437;-72
2023/02/07 02:33:19;;;;;;;13.85;11.88;;;;;;;-3.08;100.00;97502.63;5092318;28;24446;-73
2023/02/07 02:35:56;;;;;;;17.58;12.27;;;;;;;-3.19;100.00;97504.09;5109552;28;24445;-72
2023/02/07 02:38:32;;;;;;;15.43;11.30;;;;;;;-3.33;100.00;97505.56;5092062;28;24438;-72
2023/02/07 02:41:04;;;;;;;13.13;10.95;;;;;;;-3.36;100.00;97503.81;5090256;28;24503;-72
2023/02/07 02:43:37;;;;;;;14.98;12.52;;;;;;;-3.26;100.00;97510.75;5099477;28;24438;-72
2023/02/07 02:46:11;;;;;;;15.48;11.55;;;;;;;-3.28;100.00;97514.09;5105278;28;24433;-72
2023/02/07 02:48:40;;;;;;;13.00;10.30;;;;;;;-3.35;100.00;97502.13;5105897;28;24434;-72
2023/02/07 02:51:06;;;;;;;12.68;11.05;;;;;;;-3.41;100.00;97498.66;5099956;28;24434;-72
2023/02/07 02:53:33;;;;;;;16.20;11.80;;;;;;;-3.50;100.00;97490.00;5102564;28;24455;-72
2023/02/07 02:56:19;;;;;;;14.32;11.60;;;;;;;-3.53;100.00;97493.31;5089651;28;24430;-72
2023/02/07 02:59:00;;;;;;;14.00;11.38;;;;;;;-3.59;100.00;97490.69;5086648;28;24841;-72
2023/02/07 03:01:35;;;;;;;17.55;12.25;;;;;;;-3.63;100.00;97480.44;5091023;28;24434;-72
2023/02/07 03:04:25;;;;;;;22.10;11.50;;;;;;;-3.61;100.00;97476.28;5096199;28;25002;-72
2023/02/07 03:07:08;;;;;;;25.17;12.40;;;;;;;-3.65;100.00;97486.34;5085731;28;24440;-72
2023/02/07 03:09:43;;;;;;;14.88;12.00;;;;;;;-3.53;100.00;97497.53;5102942;28;24434;-72
2023/02/07 03:12:19;;;;;;;14.02;11.60;;;;;;;-3.53;100.00;97505.13;5088953;28;24434;-72
2023/02/07 03:14:57;;;;;;;12.30;10.45;;;;;;;-3.56;100.00;97512.66;5104412;28;24445;-72
2023/02/07 03:17:28;;;;;;;12.90;11.60;;;;;;;-3.38;100.00;97517.25;5092080;28;24480;-72
2023/02/07 03:20:04;;;;;;;15.88;11.30;;;;;;;-3.45;100.00;97521.34;5083720;28;24789;-72
2023/02/07 03:22:33;;;;;;;16.03;11.80;;;;;;;-3.53;100.00;97525.41;5093365;28;25049;-72
2023/02/07 03:25:02;;;;;;;17.60;11.40;;;;;;;-3.61;100.00;97532.00;5102381;28;24803;-72
2023/02/07 03:27:31;;;;;;;14.05;12.20;;;;;;;-3.46;100.00;97533.16;5105212;28;24442;-72
2023/02/07 03:30:00;;;;;;;14.32;11.27;;;;;;;-3.68;100.00;97538.59;5107465;28;24471;-72
2023/02/07 03:32:30;;;;;;;13.60;10.60;;;;;;;-3.42;100.00;97539.13;5096205;28;24809;-72
2023/02/07 03:35:04;;;;;;;16.77;11.48;;;;;;;-3.35;100.00;97540.13;5093414;28;24794;-72
2023/02/07 03:37:35;;;;;;;15.18;10.68;;;;;;;-3.47;100.00;97549.19;5099350;28;25221;-72
2023/02/07 03:40:04;;;;;;;13.27;11.63;;;;;;;-3.33;100.00;97552.00;5090185;28;24444;-73
2023/02/07 03:42:37;;;;;;;15.18;11.48;;;;;;;-3.47;100.00;97554.25;5090941;28;24454;-73
2023/02/07 03:45:07;;;;;;;13.02;10.52;;;;;;;-3.43;100.00;97552.63;5077690;28;24433;-73
2023/02/07 03:47:34;;;;;;;16.33;11.02;;;;;;;-3.47;100.00;97558.47;5100121;28;24439;-73
2023/02/07 03:50:01;;;;;;;14.02;11.45;;;;;;;-3.37;100.00;97549.34;5093685;28;24431;-73
2023/02/07 03:52:28;;;;;;;14.63;11.27;;;;;;;-3.45;100.00;97551.75;5097898;28;24454;-73
2023/02/07 03:54:54;;;;;;;19.95;10.65;;;;;;;-3.51;100.00;97551.63;5098912;28;24436;-73
2023/02/07 03:57:21;;;;;;;14.45;11.18;;;;;;;-3.69;100.00;97549.56;5093145;28;25039;-72
2023/02/07 03:59:47;;;;;;;12.45;11.15;;;;;;;-3.44;100.00;97559.38;5096623;28;24979;-73
2023/02/07 04:02:14;;;;;;;12.95;10.77;;;;;;;-3.57;100.00;97559.09;5097512;28;24434;-73
2023/02/07 04:04:40;;;;;;;16.73;11.30;;;;;;;-3.47;100.00;97561.84;5092573;28;25002;-73
2023/02/07 04:07:08;;;;;;;13.77;11.18;;;;;;;-3.51;100.00;97552.47;5084608;28;24430;-73
2023/02/07 04:09:34;;;;;;;14.27;11.63;;;;;;;-3.60;100.00;97556.50;5103819;28;24449;-73
2023/02/07 04:12:01;;;;;;;14.07;10.60;;;;;;;-3.59;100.00;97558.22;5097648;28;24446;-73
2023/02/07 04:14:28;;;;;;;12.18;10.35;;;;;;;-3.78;100.00;97560.34;5091304;28;24458;-73
2023/02/07 04:16:54;;;;;;;11.30;10.05;;;;;;;-3.46;100.00;97563.56;5104616;28;25018;-73
2023/02/07 04:19:21;;;;;;;12.57;10.60;;;;;;;-3.75;100.00;97547.75;5090916;28;24439;-73
2023/02/07 04:21:48;;;;;;;13.30;10.90;;;;;;;-3.66;100.00;97542.88;5099968;28;24510;-72
2023/02/07 04:24:15;;;;;;;13.52;11.10;;;;;;;-3.75;100.00;97535.06;5093176;28;24461;-73
2023/02/07 04:26:42;;;;;;;17.10;11.77;;;;;;;-3.71;100.00;97518.28;5100845;28;24918;-73
2023/02/07 04:29:09;;;;;;;11.50;10.35;;;;;;;-3.82;100.00;97520.59;5098689;28;24441;-74
2023/02/07 04:31:36;;;;;;;13.43;11.30;;;;;;;-3.70;100.00;97517.47;5096711;28;24439;-73
2023/02/07 04:34:03;;;;;;;11.80;10.60;;;;;;;-3.76;100.00;97515.66;5096034;28;24484;-73
2023/02/07 04:36:30;;;;;;;12.32;10.68;;;;;;;-3.81;100.00;97524.84;5098437;28;24439;-73
2023/02/07 04:38:56;;;;;;;11.68;10.45;;;;;;;-3.95;100.00;97524.53;5092232;28;24448;-72
2023/02/07 04:41:24;;;;;;;12.65;10.35;;;;;;;-4.04;100.00;97533.59;5100988;28;25006;-73
2023/02/07 04:43:51;;;;;;;12.82;10.73;;;;;;;-4.16;100.00;97540.06;5097400;28;24433;-73
2023/02/07 04:46:17;;;;;;;13.98;11.27;;;;;;;-4.01;100.00;97537.03;5089576;28;24438;-73
2023/02/07 04:48:44;;;;;;;19.40;14.77;;;;;;;-3.91;100.00;97530.53;5101144;28;24442;-73
2023/02/07 04:51:11;;;;;;;22.67;15.18;;;;;;;-3.92;100.00;97521.22;5098086;28;24434;-72
2023/02/07 04:53:38;;;;;;;20.90;14.75;;;;;;;-3.93;100.00;97520.38;5096693;28;24463;-72
2023/02/07 04:56:05;;;;;;;15.00;13.10;;;;;;;-3.94;100.00;97521.16;5089664;28;24533;-73
2023/02/07 04:58:33;;;;;;;14.60;10.90;;;;;;;-3.88;100.00;97520.47;5082999;28;24446;-73
2023/02/07 05:00:59;;;;;;;14.63;10.80;;;;;;;-3.99;100.00;97514.31;5095550;28;24445;-73
2023/02/07 05:03:26;;;;;;;12.02;10.52;;;;;;;-4.13;100.00;97514.84;5093334;28;24433;-73
2023/02/07 05:05:53;;;;;;;12.82;10.70;;;;;;;-4.09;100.00;97519.97;5101641;28;24449;-73
2023/02/07 05:08:20;;;;;;;13.43;10.52;;;;;;;-4.35;100.00;97522.78;5098668;28;24432;-73
2023/02/07 05:10:47;;;;;;;12.63;10.13;;;;;;;-4.39;100.00;97523.53;5099101;28;24525;-73
2023/02/07 05:13:14;;;;;;;11.02;9.90;;;;;;;-4.47;100.00;97519.97;5093824;28;24454;-73
2023/02/07 05:15:42;;;;;;;14.95;10.57;;;;;;;-4.51;100.00;97528.28;5093872;28;24445;-73
2023/02/07 05:18:08;;;;;;;14.90;11.60;;;;;;;-4.49;100.00;97524.13;5098633;28;24437;-73
2023/02/07 05:20:35;;;;;;;13.83;11.50;;;;;;;-4.47;100.00;97525.03;5100463;28;24588;-74
2023/02/07 05:23:01;;;;;;;14.07;10.85;;;;;;;-4.39;100.00;97513.41;5105860;28;25032;-75
2023/02/07 05:25:28;;;;;;;14.25;11.80;;;;;;;-4.57;100.00;97520.56;5099991;28;24429;-74
2023/02/07 05:27:54;;;;;;;14.63;11.95;;;;;;;-4.64;100.00;97527.97;5091112;28;24430;-73
2023/02/07 05:30:21;;;;;;;13.98;11.57;;;;;;;-4.59;100.00;97527.25;5103860;28;24998;-73
2023/02/07 05:33:04;;;;;;;13.50;11.13;;;;;;;-4.57;100.00;97541.63;5097275;28;24437;-74
2023/02/07 05:35:31;;;;;;;16.85;11.30;;;;;;;-4.47;100.00;97555.38;5098099;28;24443;-73
2023/02/07 05:37:58;;;;;;;12.50;11.07;;;;;;;-4.48;100.00;97554.50;5100172;28;24438;-73
2023/02/07 05:40:24;;;;;;;14.40;11.35;;;;;;;-4.42;100.00;97541.16;5095994;28;24439;-73
2023/02/07 05:42:51;;;;;;;11.75;9.88;;;;;;;-4.23;100.00;97534.84;5096840;28;24519;-73
2023/02/07 05:45:17;;;;;;;12.13;10.05;;;;;;;-4.36;100.00;97545.50;5089871;28;24454;-73
2023/02/07 05:47:44;;;;;;;13.55;10.45;;;;;;;-4.51;100.00;97538.41;5112504;28;24434;-73
2023/02/07 05:50:12;;;;;;;12.13;10.20;;;;;;;-4.34;100.00;97557.34;5108699;28;24469;-73
2023/02/07 05:52:38;;;;;;;13.18;10.10;;;;;;;-4.42;100.00;97566.44;5113606;28;24437;-73
2023/02/07 05:55:05;;;;;;;11.80;10.45;;;;;;;-4.54;100.00;97563.63;5101554;28;24473;-73
2023/02/07 05:57:32;;;;;;;9.95;8.93;;;;;;;-4.59;100.00;97557.59;5104831;28;24441;-73
2023/02/07 05:59:59;;;;;;;12.75;9.98;;;;;;;-4.92;100.00;97548.34;5105966;28;24438;-73
2023/02/07 06:02:25;;;;;;;14.40;10.25;;;;;;;-5.12;100.00;97546.16;5097586;28;24439;-74
2023/02/07 06:04:52;;;;;;;12.85;11.18;;;;;;;-5.25;100.00;97550.81;5093197;28;24459;-73
2023/02/07 06:07:19;;;;;;;15.10;10.32;;;;;;;-5.06;100.00;97555.53;5095110;28;24982;-73
2023/02/07 06:09:46;;;;;;;10.38;9.30;;;;;;;-4.97;100.00;97562.50;5101062;28;24469;-73
2023/02/07 06:12:12;;;;;;;15.63;11.38;;;;;;;-5.00;100.00;97557.41;5095744;28;24458;-73
2023/02/07 06:14:39;;;;;;;11.18;10.00;;;;;;;-4.90;100.00;97551.75;5088633;28;24470;-73
2023/02/07 06:17:05;;;;;;;11.02;9.40;;;;;;;-4.96;100.00;97546.56;5100676;28;24438;-73
2023/02/07 06:19:32;;;;;;;11.88;10.05;;;;;;;-4.95;100.00;97538.16;5086335;28;24439;-73
2023/02/07 06:21:58;;;;;;;10.50;9.00;;;;;;;-4.88;100.00;97537.50;5112203;28;24997;-74
2023/02/07 06:24:28;;;;;;;13.23;9.70;;;;;;;-4.73;100.00;97530.28;5096335;28;22333;-74
2023/02/07 06:26:54;;;;;;;12.02;9.18;;;;;;;-4.95;100.00;97526.34;5101927;28;24440;-73
2023/02/07 06:29:21;;;;;;;12.88;9.52;;;;;;;-5.00;100.00;97524.53;5103291;28;24448;-73
2023/02/07 06:31:47;;;;;;;13.05;9.85;;;;;;;-4.87;100.00;97529.09;5109472;28;24473;-73
2023/02/07 06:34:14;;;;;;;14.45;9.43;;;;;;;-4.81;100.00;97526.72;5100296;28;24461;-73
2023/02/07 06:36:40;;;;;;;14.15;10.68;;;;;;;-5.38;100.00;97527.75;5096290;28;24435;-73
2023/02/07 06:39:07;;;;;;;11.98;10.50;;;;;;;-5.55;100.00;97528.09;5103113;28;24432;-73
2023/02/07 06:41:35;;;;;;;12.77;10.50;;;;;;;-5.29;100.00;97537.25;5099632;28;24529;-74
2023/02/07 06:44:01;;;;;;;13.77;10.82;;;;;;;-5.20;100.00;97529.06;5089120;28;24446;-74
2023/02/07 06:46:28;;;;;;;15.98;11.02;;;;;;;-5.12;100.00;97537.69;5084151;28;24450;-72
2023/02/07 06:48:54;;;;;;;11.83;9.97;;;;;;;-5.15;100.00;97535.09;5083607;28;24435;-72
2023/02/07 06:51:21;;;;;;;11.43;9.38;;;;;;;-5.05;100.00;97544.63;5089152;28;24442;-72
2023/02/07 06:53:47;;;;;;;13.35;10.73;;;;;;;-5.00;100.00;97537.19;5099511;28;24461;-72
2023/02/07 06:56:14;;;;;;;12.43;10.73;;;;;;;-5.11;100.00;97542.78;5098412;28;24441;-72
2023/02/07 06:58:42;;;;;;;18.80;13.43;;;;;;;-5.05;100.00;97556.41;5099114;28;24461;-73
2023/02/07 07:01:08;;;;;;;45.33;24.42;;;;;;;-5.16;100.00;97559.47;5097111;28;24448;-73
2023/02/07 07:03:35;;;;;;;43.78;26.42;;;;;;;-5.19;100.00;97561.06;5090170;28;24465;-73
2023/02/07 07:06:01;;;;;;;27.17;20.83;;;;;;;-5.18;100.00;97567.84;5100153;28;24452;-72
2023/02/07 07:08:28;;;;;;;27.17;18.52;;;;;;;-5.15;100.00;97562.88;5095037;28;24445;-72
2023/02/07 07:10:55;;;;;;;28.77;18.93;;;;;;;-5.15;100.00;97557.84;5106114;28;24558;-72
2023/02/07 07:13:22;;;;;;;26.45;20.23;;;;;;;-5.15;100.00;97558.69;5095131;28;24452;-75
2023/02/07 07:15:50;;;;;;;30.77;19.80;;;;;;;-5.06;100.00;97559.75;5103786;28;24438;-75
2023/02/07 07:18:17;;;;;;;30.10;19.27;;;;;;;-5.02;100.00;97557.34;5101138;28;24434;-75
2023/02/07 07:20:43;;;;;;;26.88;18.17;;;;;;;-5.07;100.00;97570.69;5091937;28;24442;-75
2023/02/07 07:23:09;;;;;;;24.20;17.63;;;;;;;-5.03;100.00;97575.00;5098427;28;25010;-75
2023/02/07 07:25:36;;;;;;;23.63;17.48;;;;;;;-5.01;100.00;97574.19;5099060;28;24427;-75
2023/02/07 07:28:03;;;;;;;25.88;19.13;;;;;;;-5.10;100.00;97581.53;5101094;28;24434;-75
2023/02/07 07:30:30;;;;;;;24.40;19.30;;;;;;;-5.02;100.00;97576.69;5107600;28;24437;-73
2023/02/07 07:32:57;;;;;;;22.00;17.23;;;;;;;-4.93;100.00;97582.88;5098968;28;25014;-73
2023/02/07 07:35:24;;;;;;;21.13;15.95;;;;;;;-4.88;100.00;97583.84;5100075;28;24465;-74
2023/02/07 07:37:50;;;;;;;17.80;15.80;;;;;;;-4.65;100.00;97581.88;5100939;28;24469;-74
2023/02/07 07:40:17;;;;;;;19.00;15.82;;;;;;;-4.34;100.00;97577.59;5099115;28;24433;-75
2023/02/07 07:42:43;;;;;;;21.52;16.40;;;;;;;-4.29;100.00;97577.72;5102460;28;24434;-72
2023/02/07 07:45:12;;;;;;;22.20;16.35;;;;;;;-4.08;100.00;97582.41;5097666;28;24492;-74
2023/02/07 07:47:38;;;;;;;18.15;14.77;;;;;;;-3.90;100.00;97586.22;5101820;28;24490;-74
2023/02/07 07:50:07;;;;;;;18.45;14.43;;;;;;;-3.81;100.00;97584.75;5094749;28;24445;-74
2023/02/07 07:52:34;;;;;;;18.65;14.40;;;;;;;-3.81;100.00;97582.22;5100735;28;24440;-74
2023/02/07 07:55:01;;;;;;;20.38;14.18;;;;;;;-3.71;100.00;97579.03;5098173;28;24846;-73
2023/02/07 07:57:28;;;;;;;17.42;14.13;;;;;;;-3.65;100.00;97577.50;5090349;28;24441;-74
2023/02/07 07:59:55;;;;;;;17.13;14.00;;;;;;;-3.45;100.00;97567.81;5091713;28;24515;-75
2023/02/07 08:02:23;;;;;;;18.48;14.20;;;;;;;-3.27;100.00;97563.94;5096531;28;24437;-74
2023/02/07 08:04:49;;;;;;;14.98;13.32;;;;;;;-3.17;100.00;97561.59;5096083;28;24442;-75
2023/02/07 08:07:17;;;;;;;15.43;13.68;;;;;;;-2.89;100.00;97566.34;5095318;28;24897;-75
2023/02/07 08:09:44;;;;;;;16.00;13.50;;;;;;;-2.76;100.00;97581.81;5094700;28;25082;-75
2023/02/07 08:12:10;;;;;;;17.05;13.23;;;;;;;-2.85;100.00;97573.22;5088329;28;25010;-75
2023/02/07 08:14:37;;;;;;;15.60;12.82;;;;;;;-2.50;100.00;97576.34;5096432;28;24465;-74
2023/02/07 08:17:03;;;;;;;16.83;12.68;;;;;;;-2.34;100.00;97577.47;5097270;28;24433;-74
2023/02/07 08:19:30;;;;;;;14.13;12.23;;;;;;;-2.15;100.00;97576.06;5102527;28;24425;-74
2023/02/07 08:21:56;;;;;;;15.85;11.98;;;;;;;-2.36;100.00;97574.91;5100356;28;24437;-74
2023/02/07 08:24:27;;;;;;;17.75;11.80;;;;;;;-2.10;100.00;97584.63;5099252;28;24784;-75
2023/02/07 08:26:53;;;;;;;13.35;11.18;;;;;;;-1.80;100.00;97587.63;5102543;28;24491;-75
2023/02/07 08:29:20;;;;;;;15.32;11.57;;;;;;;-1.40;100.00;97602.59;5094203;28;24440;-74
2023/02/07 08:31:47;;;;;;;17.67;12.80;;;;;;;-1.15;100.00;97602.09;5099072;28;24439;-75
2023/02/07 08:34:14;;;;;;;14.57;12.25;;;;;;;-1.19;100.00;97604.56;5107532;28;24563;-74
2023/02/07 08:36:40;;;;;;;17.92;13.88;;;;;;;-1.03;100.00;97599.69;5095059;28;24438;-74
2023/02/07 08:39:07;;;;;;;15.47;13.17;;;;;;;-1.23;100.00;97606.19;5103050;28;24437;-74
2023/02/07 08:41:35;;;;;;;17.00;14.10;;;;;;;-1.15;100.00;97598.66;5097860;28;24434;-75
2023/02/07 08:44:01;;;;;;;19.58;14.80;;;;;;;-1.01;100.00;97608.16;5100896;28;24429;-75
2023/02/07 08:46:28;;;;;;;17.27;15.38;;;;;;;-0.97;100.00;97609.06;5093257;28;24437;-75
2023/02/07 08:48:54;;;;;;;20.33;15.53;;;;;;;-0.98;100.00;97615.84;5107040;28;24485;-75
2023/02/07 08:51:21;;;;;;;19.98;15.45;;;;;;;-0.86;100.00;97624.44;5091661;28;24438;-75
2023/02/07 08:53:47;;;;;;;17.05;15.25;;;;;;;-0.83;100.00;97629.59;5101821;28;25009;-74
2023/02/07 08:56:14;;;;;;;18.33;14.32;;;;;;;-0.61;100.00;97636.63;5090760;28;24430;-74
2023/02/07 08:58:41;;;;;;;14.00;12.50;;;;;;;-0.55;100.00;97644.34;5102099;28;24950;-74
2023/02/07 09:01:10;;;;;;;14.70;11.25;;;;;;;-1.01;100.00;97645.47;5096680;28;24808;-74
2023/02/07 09:03:36;;;;;;;17.98;11.10;;;;;;;-1.25;98.91;97641.78;5089441;28;24476;-74
2023/02/07 09:06:03;;;;;;;15.02;11.55;;;;;;;-0.76;100.00;97639.84;5101780;28;24434;-74
2023/02/07 09:08:30;;;;;;;15.77;11.10;;;;;;;-0.55;99.15;97644.34;5095607;28;24441;-74
2023/02/07 09:10:56;;;;;;;14.63;11.05;;;;;;;-0.75;96.73;97641.53;5093909;28;24437;-74
2023/02/07 09:13:23;;;;;;;13.95;11.55;;;;;;;-0.85;96.41;97642.28;5097748;28;24456;-75
2023/02/07 09:15:55;;;;;;;16.27;10.75;;;;;;;-0.66;98.93;97630.63;5102544;28;24449;-74
2023/02/07 09:18:21;;;;;;;12.48;10.65;;;;;;;-0.40;99.25;97617.34;5101756;28;24483;-75
2023/02/07 09:20:48;;;;;;;12.00;10.80;;;;;;;-0.17;96.44;97609.91;5092848;28;24437;-75
2023/02/07 09:23:18;;;;;;;12.45;11.25;;;;;;;0.01;96.21;97615.16;5099020;28;24441;-75
2023/02/07 09:25:45;;;;;;;14.83;11.17;;;;;;;-0.03;94.71;97608.34;5091071;28;24851;-75
2023/02/07 09:28:11;;;;;;;15.50;11.07;;;;;;;0.03;96.49;97607.50;5096035;28;25014;-75
2023/02/07 09:30:40;;;;;;;15.00;11.13;;;;;;;0.10;95.09;97602.47;5105661;28;24429;-75
2023/02/07 09:33:08;;;;;;;15.25;11.60;;;;;;;-0.08;93.97;97615.91;5094872;28;24441;-75
2023/02/07 09:35:37;;;;;;;15.55;11.65;;;;;;;0.11;94.61;97606.75;5103825;28;24452;-74
2023/02/07 09:38:03;;;;;;;14.27;11.68;;;;;;;0.29;96.32;97626.41;5097877;28;24450;-74
2023/02/07 09:40:33;;;;;;;15.20;11.40;;;;;;;0.29;92.08;97625.56;5099206;28;24445;-74
2023/02/07 09:43:10;;;;;;;14.03;12.23;;;;;;;0.30;95.40;97629.78;5098335;28;25053;-74
2023/02/07 09:45:42;;;;;;;13.35;11.90;;;;;;;0.35;93.10;97635.81;5095757;28;24422;-74
2023/02/07 09:48:16;;;;;;;12.23;10.80;;;;;;;0.54;95.08;97626.56;5099409;28;24433;-75
2023/02/07 09:50:48;;;;;;;17.77;12.77;;;;;;;0.49;93.03;97629.09;5097342;28;24488;-76
2023/02/07 09:53:18;;;;;;;13.10;10.68;;;;;;;0.65;91.40;97632.59;5099194;28;24437;-75
2023/02/07 09:55:51;;;;;;;12.95;10.90;;;;;;;0.77;91.63;97640.31;5093741;28;25000;-75
2023/02/07 09:58:21;;;;;;;12.57;11.27;;;;;;;0.94;90.52;97641.25;5100936;28;24557;-74
2023/02/07 10:00:54;;;;;;;15.20;11.20;;;;;;;0.84;89.05;97636.94;5095986;28;24441;-75
2023/02/07 10:03:24;;;;;;;17.35;11.88;;;;;;;0.86;93.88;97644.63;5089431;28;24436;-75
2023/02/07 10:05:57;;;;;;;17.65;11.65;;;;;;;1.00;91.35;97653.19;5096008;28;24434;-75
2023/02/07 10:08:24;;;;;;;13.18;11.55;;;;;;;1.11;89.82;97650.69;5099039;28;24544;-76
2023/02/07 10:10:58;;;;;;;13.53;10.90;;;;;;;1.19;90.68;97652.44;5095196;28;24565;-75
2023/02/07 10:13:43;;;;;;;14.68;11.75;;;;;;;1.04;89.98;97648.94;5090598;28;24437;-76
2023/02/07 10:16:24;;;;;;;15.57;11.20;;;;;;;0.88;91.90;97645.47;5088891;28;24457;-76
2023/02/07 10:19:00;;;;;;;13.10;11.00;;;;;;;0.55;89.60;97646.13;5096658;28;24449;-75
2023/02/07 10:21:34;;;;;;;11.63;10.43;;;;;;;0.87;90.79;97638.66;5089423;28;24437;-75
2023/02/07 10:24:26;;;;;;;15.52;11.63;;;;;;;0.98;92.27;97649.78;5098162;28;24485;-76
2023/02/07 10:26:54;;;;;;;16.42;11.57;;;;;;;1.13;90.99;97652.41;5093170;28;24436;-75
2023/02/07 10:29:46;;;;;;;26.53;11.43;;;;;;;1.14;92.94;97648.16;5091246;28;24444;-74
2023/02/07 10:32:14;;;;;;;12.80;11.10;;;;;;;1.12;89.42;97653.25;5099359;28;24434;-75
2023/02/07 10:34:47;;;;;;;15.15;11.32;;;;;;;1.09;86.00;97653.25;5098550;28;25042;-74
2023/02/07 10:37:18;;;;;;;13.23;10.93;;;;;;;1.27;91.30;97649.06;5101532;28;24487;-73
2023/02/07 10:39:50;;;;;;;19.35;11.77;;;;;;;1.22;90.21;97643.94;5100467;28;24438;-73
2023/02/07 10:42:19;;;;;;;14.10;11.32;;;;;;;1.45;93.76;97649.97;5103205;28;24437;-74
2023/02/07 10:44:45;;;;;;;12.60;11.27;;;;;;;1.44;90.57;97655.06;5103819;28;24442;-73
2023/02/07 10:47:15;;;;;;;14.60;11.18;;;;;;;1.43;88.87;97653.38;5094743;28;24433;-73
2023/02/07 10:49:46;;;;;;;15.50;10.73;;;;;;;1.42;90.79;97651.69;5100845;28;24437;-73
2023/02/07 10:52:27;;;;;;;12.85;10.75;;;;;;;1.59;89.29;97647.44;5098018;28;24520;-73
2023/02/07 10:54:55;;;;;;;15.07;10.93;;;;;;;1.72;89.72;97650.91;5098714;28;25112;-73
2023/02/07 10:57:22;;;;;;;16.70;11.17;;;;;;;1.75;87.65;97650.91;5102228;28;24437;-73
2023/02/07 10:59:56;;;;;;;12.52;10.63;;;;;;;1.70;89.25;97656.00;5102838;28;24998;-73
2023/02/07 11:02:48;;;;;;;16.33;10.82;;;;;;;1.61;88.87;97650.03;5089583;28;24434;-72
2023/02/07 11:05:36;;;;;;;13.88;10.93;;;;;;;1.50;88.39;97652.53;5095166;28;24429;-73
2023/02/07 11:08:05;;;;;;;13.68;10.95;;;;;;;1.38;90.24;97657.63;5094086;28;24430;-73
2023/02/07 11:10:35;;;;;;;17.23;10.93;;;;;;;1.51;93.57;97653.41;5090290;28;24809;-73
2023/02/07 11:13:03;;;;;;;14.77;11.60;;;;;;;1.61;92.75;97661.09;5092888;28;24445;-73
2023/02/07 11:15:38;;;;;;;14.40;11.15;;;;;;;1.58;92.31;97661.06;5101203;28;24873;-73
2023/02/07 11:18:05;;;;;;;16.50;11.68;;;;;;;1.45;90.80;97664.47;5093038;28;24441;-73
2023/02/07 11:20:35;;;;;;;11.38;10.27;;;;;;;1.51;89.10;97661.06;5097600;28;24441;-73
2023/02/07 11:23:11;;;;;;;16.23;11.45;;;;;;;1.43;96.64;97656.78;5106055;28;24434;-73